Time;durP1;ratioP1;P1;durP2;ratioP2;P2;SDS_P1;SDS_P2;PMS_P1;PMS_P2;Temp;Humidity;BMP_temperature;BMP_pressure;BME280_temperature;BME280_humidity;BME280_pressure;Samples;Min_cycle;Max_cycle;Signal;HPM_P1;HPM_P2
2022/09/24 00:00:56;;;;;;;;;11.75;11.25;;;;;18.89;39.58;100800.81;5062135;28;46124;-58
2022/09/24 00:03:24;;;;;;;;;12.50;10.75;;;;;18.90;39.66;100798.13;5062160;28;45343;-58
2022/09/24 00:05:50;;;;;;;;;9.25;9.25;;;;;18.91;39.44;100807.84;5062157;28;45304;-58
2022/09/24 00:08:18;;;;;;;;;11.75;10.00;;;;;18.87;39.85;100795.56;5062055;28;45229;-58
2022/09/24 00:10:45;;;;;;;;;12.75;10.25;;;;;18.91;39.82;100801.66;5043797;28;47388;-58
2022/09/24 00:13:14;;;;;;;;;13.00;11.75;;;;;18.90;39.69;100802.56;5061727;28;45363;-58
2022/09/24 00:15:42;;;;;;;;;15.00;13.00;;;;;18.90;39.86;100803.44;5062047;28;45489;-57
2022/09/24 00:18:09;;;;;;;;;12.75;11.50;;;;;18.91;39.45;100799.84;5061813;28;45246;-57
2022/09/24 00:20:35;;;;;;;;;10.75;10.75;;;;;18.90;39.69;100791.91;5061613;28;46327;-58
2022/09/24 00:23:01;;;;;;;;;11.25;10.25;;;;;18.91;39.63;100796.31;5061970;28;45423;-57
2022/09/24 00:28:12;;;;;;;;;11.75;11.25;;;;;18.85;40.21;100789.44;5046668;28;45589;-57
2022/09/24 00:30:39;;;;;;;;;13.00;11.75;;;;;18.88;40.06;100801.75;5061009;28;46205;-57
2022/09/24 00:33:04;;;;;;;;;13.25;12.25;;;;;18.86;39.91;100800.97;5061457;28;45339;-57
2022/09/24 00:35:34;;;;;;;;;14.25;13.00;;;;;18.88;40.04;100797.31;5061463;28;45344;-58
2022/09/24 00:38:00;;;;;;;;;10.50;10.50;;;;;18.88;39.69;100794.66;5061873;28;45319;-58
2022/09/24 00:40:30;;;;;;;;;13.00;8.00;;;;;18.89;39.70;100795.50;5040579;28;47456;-59
2022/09/24 00:42:56;;;;;;;;;11.00;10.00;;;;;18.88;40.09;100793.75;5023512;28;45285;-57
2022/09/24 00:45:23;;;;;;;;;12.75;12.75;;;;;18.89;39.88;100795.50;5041432;28;45381;-57
2022/09/24 00:47:50;;;;;;;;;11.75;10.50;;;;;18.89;39.95;100799.00;5044738;28;45240;-57
2022/09/24 00:50:15;;;;;;;;;12.75;11.25;;;;;18.89;40.04;100800.81;5044053;28;45378;-58
2022/09/24 00:52:55;;;;;;;;;11.25;11.25;;;;;18.88;39.97;100791.97;5041130;28;45376;-57
2022/09/24 00:55:23;;;;;;;;;11.50;10.50;;;;;18.86;40.38;100785.84;5041450;28;45286;-57
2022/09/24 00:57:51;;;;;;;;;12.50;9.00;;;;;18.88;40.04;100789.31;5040989;28;45492;-58
2022/09/24 01:00:18;;;;;;;;;12.75;12.00;;;;;18.88;40.33;100784.00;5042443;28;48121;-57
2022/09/24 01:02:46;;;;;;;;;10.25;8.75;;;;;18.84;40.11;100780.63;5061295;28;45371;-57
2022/09/24 01:05:12;;;;;;;;;13.50;12.00;;;;;18.87;40.34;100778.72;5061383;28;45227;-58
2022/09/24 01:07:37;;;;;;;;;10.25;9.00;;;;;18.86;40.51;100775.22;5060793;28;45249;-58
2022/09/24 01:10:04;;;;;;;;;14.00;12.25;;;;;18.87;40.46;100773.41;5042953;28;46163;-58
2022/09/24 01:12:41;;;;;;;;;11.00;10.50;;;;;18.86;40.11;100772.53;5061064;28;45197;-57
2022/09/24 01:15:10;;;;;;;;;11.25;10.75;;;;;18.86;40.20;100772.53;5061170;28;45357;-58
2022/09/24 01:18:19;;;;;;;;;11.00;9.50;;;;;18.87;40.66;100782.25;5060569;28;45331;-58
2022/09/24 01:21:06;;;;;;;;;10.50;10.00;;;;;18.86;40.39;100771.69;5036735;28;45661;-57
2022/09/24 01:23:43;;;;;;;;;13.75;13.50;;;;;18.83;40.58;100773.56;5061012;28;45468;-58
2022/09/24 01:26:31;;;;;;;;;9.75;9.75;;;;;18.84;40.54;100766.41;5060945;28;45320;-58
2022/09/24 01:29:04;;;;;;;;;9.75;9.75;;;;;18.82;40.60;100766.50;5060537;28;45194;-58
2022/09/24 01:31:36;;;;;;;;;11.75;10.50;;;;;18.82;40.93;100765.66;5042571;28;46385;-58
2022/09/24 01:34:04;;;;;;;;;14.75;11.75;;;;;18.81;40.77;100772.75;5060787;28;45462;-58
2022/09/24 01:36:32;;;;;;;;;13.00;12.25;;;;;18.81;40.68;100775.41;5060781;28;45466;-58
2022/09/24 01:38:59;;;;;;;;;12.25;11.25;;;;;18.81;40.71;100761.25;5060241;28;45179;-58
2022/09/24 01:41:25;;;;;;;;;14.50;12.75;;;;;18.81;40.77;100764.78;5042945;28;46405;-58
2022/09/24 01:43:51;;;;;;;;;13.50;11.50;;;;;18.80;40.64;100756.88;5060192;28;45289;-57
2022/09/24 01:46:19;;;;;;;;;11.75;10.25;;;;;18.80;40.65;100755.09;5060268;28;45249;-58
2022/09/24 01:48:44;;;;;;;;;11.25;11.25;;;;;18.78;41.10;100759.63;5055500;28;45450;-57
2022/09/24 01:51:29;;;;;;;;;14.50;13.75;;;;;18.75;40.90;100762.41;5021643;28;62006;-57
2022/09/24 01:54:02;;;;;;;;;10.75;10.75;;;;;18.75;41.01;100757.09;5048156;28;45451;-58
2022/09/24 01:56:35;;;;;;;;;15.25;14.75;;;;;18.72;41.01;100746.59;5060412;28;45595;-57
2022/09/24 01:59:19;;;;;;;;;11.75;9.75;;;;;18.70;40.99;100751.13;5049473;28;45355;-57
2022/09/24 02:02:10;;;;;;;;;13.00;10.50;;;;;18.67;40.78;100748.63;5060102;28;45235;-58
2022/09/24 02:04:41;;;;;;;;;12.50;10.25;;;;;18.65;40.94;100740.72;5060252;28;45521;-57
2022/09/24 02:07:13;;;;;;;;;6.50;5.75;;;;;18.63;40.99;100741.72;5060429;28;45344;-59
2022/09/24 02:09:41;;;;;;;;;11.50;10.00;;;;;18.62;41.42;100742.66;5059390;28;45549;-58
2022/09/24 02:12:16;;;;;;;;;12.25;10.25;;;;;18.61;41.20;100743.59;5060301;28;45328;-58
2022/09/24 02:14:53;;;;;;;;;13.00;12.00;;;;;18.58;41.43;100736.63;5060123;28;45556;-58
2022/09/24 02:17:22;;;;;;;;;12.00;12.00;;;;;18.57;41.25;100740.22;5029619;28;45364;-58
2022/09/24 02:19:49;;;;;;;;;11.25;9.75;;;;;18.56;41.49;100734.97;5046635;28;45166;-58
2022/09/24 02:22:16;;;;;;;;;10.25;9.75;;;;;18.54;41.66;100731.50;5059844;28;45325;-58
2022/09/24 02:24:56;;;;;;;;;17.25;13.00;;;;;18.52;41.77;100729.78;5060220;28;45330;-58
2022/09/24 02:27:27;;;;;;;;;16.75;14.25;;;;;18.48;41.48;100725.53;5041774;28;45277;-58
2022/09/24 02:29:53;;;;;;;;;15.00;10.75;;;;;18.49;41.45;100729.09;5059873;28;45337;-58
2022/09/24 02:32:22;;;;;;;;;13.50;13.50;;;;;18.47;41.92;100729.13;5059730;28;45519;-58
2022/09/24 02:35:01;;;;;;;;;14.00;14.00;;;;;18.45;41.96;100728.38;5059997;28;45310;-58
2022/09/24 02:37:28;;;;;;;;;15.25;12.50;;;;;18.43;41.94;100724.91;5059602;28;45401;-59
2022/09/24 02:39:53;;;;;;;;;11.25;10.50;;;;;18.42;42.38;100719.66;5041719;28;45336;-58
2022/09/24 02:42:21;;;;;;;;;12.50;11.75;;;;;18.39;42.13;100714.47;5059486;28;45336;-58
2022/09/24 02:44:46;;;;;;;;;11.25;10.75;;;;;18.36;42.18;100718.13;5059940;28;45296;-58
2022/09/24 02:47:12;;;;;;;;;11.50;9.75;;;;;18.35;42.29;100717.28;5059822;28;45214;-58
2022/09/24 02:49:37;;;;;;;;;13.00;12.25;;;;;18.32;42.25;100722.75;5048530;28;46405;-58
2022/09/24 02:52:03;;;;;;;;;15.75;14.75;;;;;18.28;42.29;100707.00;5039402;28;46971;-58
2022/09/24 02:54:29;;;;;;;;;12.00;9.75;;;;;18.28;42.59;100713.19;5039850;28;45195;-58
2022/09/24 02:56:54;;;;;;;;;14.50;13.00;;;;;18.26;42.66;100717.69;5041753;28;45273;-58
2022/09/24 02:59:19;;;;;;;;;14.00;12.75;;;;;18.24;42.62;100708.94;5054910;28;45196;-57
2022/09/24 03:01:45;;;;;;;;;15.25;12.75;;;;;18.19;43.05;100703.00;5063195;28;46474;-57
2022/09/24 03:04:11;;;;;;;;;14.00;13.50;;;;;18.21;43.04;100708.22;5063249;28;45423;-57
2022/09/24 03:06:36;;;;;;;;;11.25;10.50;;;;;18.19;43.00;100698.53;5063097;28;45520;-57
2022/09/24 03:09:03;;;;;;;;;14.00;13.50;;;;;18.17;43.36;100700.38;5063183;28;45395;-58
2022/09/24 03:11:31;;;;;;;;;16.50;14.25;;;;;18.18;43.21;100694.13;5062882;28;45364;-58
2022/09/24 03:13:57;;;;;;;;;13.75;12.75;;;;;18.17;43.10;100697.72;5033111;28;46073;-58
2022/09/24 03:16:22;;;;;;;;;14.00;12.75;;;;;18.15;43.29;100696.06;5041706;28;45231;-58
2022/09/24 03:18:48;;;;;;;;;16.00;13.50;;;;;18.14;43.21;100691.72;5054540;28;45424;-58
2022/09/24 03:21:16;;;;;;;;;14.00;12.50;;;;;18.12;43.55;100694.41;5062612;28;46179;-58
2022/09/24 03:23:42;;;;;;;;;15.25;13.00;;;;;18.11;43.32;100691.84;5063159;28;45268;-58
2022/09/24 03:26:08;;;;;;;;;16.25;13.50;;;;;18.08;43.65;100690.19;5062892;28;45439;-58
2022/09/24 03:28:33;;;;;;;;;16.25;15.00;;;;;18.07;43.48;100682.28;5062739;28;45420;-58
2022/09/24 03:30:58;;;;;;;;;14.25;12.50;;;;;17.98;43.84;100668.47;5062794;28;46370;-58
2022/09/24 03:33:32;;;;;;;;;14.00;13.75;;;;;18.05;43.86;100679.69;5044750;28;45315;-57
2022/09/24 03:36:00;;;;;;;;;15.25;13.75;;;;;18.02;43.46;100679.81;5062634;28;45514;-57
2022/09/24 03:38:25;;;;;;;;;14.00;13.00;;;;;18.02;43.88;100679.81;5062573;28;45538;-57
2022/09/24 03:40:51;;;;;;;;;13.50;13.00;;;;;17.98;43.98;100676.44;5062283;28;45280;-57
2022/09/24 03:43:16;;;;;;;;;12.50;12.50;;;;;17.97;44.31;100676.53;5062610;28;45261;-57
2022/09/24 03:45:41;;;;;;;;;15.50;14.50;;;;;17.95;43.90;100676.59;5062710;28;45267;-57
2022/09/24 03:48:07;;;;;;;;;13.50;13.50;;;;;17.92;44.35;100675.84;5062513;28;45217;-57
2022/09/24 03:50:36;;;;;;;;;11.75;11.75;;;;;17.90;43.99;100669.72;5039954;28;46763;-57
2022/09/24 03:53:01;;;;;;;;;15.25;13.50;;;;;17.90;44.37;100680.34;5042306;28;45356;-57
2022/09/24 03:55:26;;;;;;;;;14.25;13.50;;;;;17.88;44.14;100675.13;5024470;28;45411;-57
2022/09/24 03:57:52;;;;;;;;;13.25;12.25;;;;;17.86;44.24;100669.00;5042305;28;45389;-58
2022/09/24 04:00:17;;;;;;;;;12.00;11.75;;;;;17.84;44.20;100665.56;5061566;28;52561;-58
2022/09/24 04:02:43;;;;;;;;;17.25;13.75;;;;;17.81;44.52;100669.22;5062425;28;45326;-58
2022/09/24 04:05:09;;;;;;;;;16.00;13.00;;;;;17.80;44.31;100674.63;5061648;28;45312;-58
2022/09/24 04:07:34;;;;;;;;;17.75;15.00;;;;;17.77;44.38;100662.31;5030610;28;45597;-59
2022/09/24 04:09:59;;;;;;;;;13.00;10.75;;;;;17.74;44.52;100666.94;5040682;28;47116;-59
2022/09/24 04:12:25;;;;;;;;;13.25;12.25;;;;;17.72;44.69;100664.31;5054932;28;45383;-58
2022/09/24 04:14:50;;;;;;;;;14.75;13.75;;;;;17.70;44.58;100671.50;5062118;28;45245;-59
2022/09/24 04:17:16;;;;;;;;;11.00;11.00;;;;;17.67;44.77;100669.84;5062071;28;46597;-59
2022/09/24 04:19:42;;;;;;;;;14.50;12.75;;;;;17.65;44.65;100668.19;5061863;28;47210;-59
2022/09/24 04:22:07;;;;;;;;;16.25;13.25;;;;;17.63;44.63;100675.38;5061913;28;45364;-59
2022/09/24 04:24:33;;;;;;;;;18.00;15.00;;;;;17.60;44.83;100665.75;5062067;28;45451;-59
2022/09/24 04:26:58;;;;;;;;;17.50;14.75;;;;;17.55;44.84;100659.78;5061962;28;46106;-59
2022/09/24 04:29:23;;;;;;;;;16.25;15.25;;;;;17.58;44.95;100669.41;5043441;28;48014;-59
2022/09/24 04:31:49;;;;;;;;;15.75;12.25;;;;;17.56;44.97;100672.13;5061590;28;48420;-59
2022/09/24 04:34:14;;;;;;;;;18.75;13.50;;;;;17.54;45.06;100669.53;5062012;28;45430;-59
2022/09/24 04:36:39;;;;;;;;;14.50;12.00;;;;;17.52;45.20;100668.75;5061703;28;45533;-58
2022/09/24 04:39:05;;;;;;;;;17.00;15.75;;;;;17.50;45.15;100667.94;5061456;28;46119;-59
2022/09/24 04:41:30;;;;;;;;;21.25;17.25;;;;;17.49;45.19;100668.88;5061711;28;45395;-59
2022/09/24 04:43:56;;;;;;;;;16.50;14.50;;;;;17.48;45.30;100667.16;5061559;28;45268;-59
2022/09/24 04:46:22;;;;;;;;;16.00;13.50;;;;;17.47;45.48;100676.06;5061726;28;45446;-59
2022/09/24 04:48:47;;;;;;;;;13.00;13.00;;;;;17.45;45.51;100672.59;5056521;28;46139;-59
2022/09/24 04:51:13;;;;;;;;;18.25;13.75;;;;;17.41;45.66;100671.00;5041159;28;45396;-59
2022/09/24 04:53:38;;;;;;;;;18.00;15.25;;;;;17.42;45.61;100674.53;5041481;28;45397;-59
2022/09/24 04:56:10;;;;;;;;;19.25;13.75;;;;;17.40;45.66;100676.41;5041414;28;45494;-59
2022/09/24 04:58:36;;;;;;;;;18.75;15.25;;;;;17.36;45.84;100679.16;5045245;28;45463;-59
2022/09/24 05:01:04;;;;;;;;;15.00;14.00;;;;;17.31;45.43;100677.66;5061535;28;45433;-59
2022/09/24 05:03:30;;;;;;;;;12.00;12.00;;;;;17.27;45.66;100676.03;5061475;28;45436;-59
2022/09/24 05:05:55;;;;;;;;;16.00;13.50;;;;;17.26;45.80;100682.28;5060702;28;45513;-59
2022/09/24 05:08:21;;;;;;;;;21.75;14.50;;;;;17.25;45.83;100684.09;5061008;28;46162;-59
2022/09/24 05:10:46;;;;;;;;;17.75;15.50;;;;;17.23;45.83;100680.63;5061358;28;45273;-59
2022/09/24 05:13:11;;;;;;;;;11.75;11.25;;;;;17.21;45.89;100674.53;5061051;28;48526;-59
2022/09/24 05:15:37;;;;;;;;;11.00;11.00;;;;;17.21;45.85;100683.34;5061319;28;45233;-59
2022/09/24 05:18:02;;;;;;;;;16.50;14.75;;;;;17.15;46.24;100680.97;5060923;28;46051;-59
2022/09/24 05:20:27;;;;;;;;;9.50;9.25;;;;;17.15;46.17;100688.91;5059857;28;45235;-59
2022/09/24 05:22:53;;;;;;;;;12.75;11.00;;;;;17.13;46.44;100690.78;5061216;28;45182;-59
2022/09/24 05:25:20;;;;;;;;;13.25;10.75;;;;;17.10;46.50;100687.41;5061187;28;45293;-59
2022/09/24 05:27:48;;;;;;;;;14.00;12.75;;;;;17.08;46.28;100694.56;5060986;28;45297;-59
2022/09/24 05:30:15;;;;;;;;;9.50;9.50;;;;;17.04;46.32;100699.13;5060744;28;45315;-59
2022/09/24 05:32:40;;;;;;;;;16.50;14.25;;;;;17.02;46.68;100696.53;5061062;28;45450;-59
2022/09/24 05:35:07;;;;;;;;;11.00;9.75;;;;;17.02;46.56;100696.53;5060872;28;45309;-59
2022/09/24 05:37:33;;;;;;;;;11.50;9.50;;;;;17.01;46.36;100704.56;5060727;28;46250;-59
2022/09/24 05:40:46;;;;;;;;;12.00;11.25;;;;;17.00;46.68;100702.84;5060694;28;45317;-59
2022/09/24 05:42:45;;;;;;;;;15.00;12.75;;;;;16.98;46.17;100705.56;5060548;28;45273;-59
2022/09/24 05:45:11;;;;;;;;;13.25;13.00;;;;;16.95;46.47;100713.66;5060587;28;45424;-59
2022/09/24 05:47:36;;;;;;;;;12.75;9.50;;;;;16.93;46.60;100706.69;5060681;28;45336;-60
2022/09/24 05:50:02;;;;;;;;;10.75;10.75;;;;;16.91;46.60;100706.75;5044782;28;45337;-60
2022/09/24 05:52:27;;;;;;;;;14.00;12.75;;;;;16.92;46.56;100710.25;5040560;28;45273;-59
2022/09/24 05:54:52;;;;;;;;;13.00;11.00;;;;;16.93;46.59;100709.31;5040197;28;48551;-59
2022/09/24 05:57:18;;;;;;;;;13.50;13.00;;;;;16.93;46.46;100704.91;5040403;28;46142;-59
2022/09/24 05:59:43;;;;;;;;;10.50;10.50;;;;;16.92;46.41;100710.25;5055159;28;45707;-59
2022/09/24 06:02:09;;;;;;;;;11.75;10.00;;;;;16.89;46.70;100708.56;5061046;28;45372;-60
2022/09/24 06:04:35;;;;;;;;;18.00;15.75;;;;;16.88;47.05;100713.00;5060321;28;45269;-60
2022/09/24 06:07:02;;;;;;;;;13.75;12.25;;;;;16.84;46.87;100708.75;5060228;28;52200;-60
2022/09/24 06:09:27;;;;;;;;;14.75;13.00;;;;;16.84;47.08;100711.41;5060408;28;45318;-60
2022/09/24 06:11:52;;;;;;;;;14.50;14.00;;;;;16.82;47.08;100713.25;5042312;28;45443;-59
2022/09/24 06:14:18;;;;;;;;;14.50;13.25;;;;;16.82;46.92;100718.56;5060140;28;45490;-60
2022/09/24 06:16:43;;;;;;;;;16.50;13.25;;;;;16.82;47.18;100723.88;5042247;28;46188;-60
2022/09/24 06:19:09;;;;;;;;;18.25;15.75;;;;;16.83;47.30;100730.03;5045899;28;45164;-60
2022/09/24 06:21:34;;;;;;;;;20.00;15.00;;;;;16.80;47.07;100723.06;5040313;28;45366;-60
2022/09/24 06:24:00;;;;;;;;;13.25;13.00;;;;;16.78;47.20;100730.25;5039934;28;45391;-60
2022/09/24 06:26:26;;;;;;;;;14.75;14.00;;;;;16.74;47.57;100725.97;5040111;28;47150;-60
2022/09/24 06:28:51;;;;;;;;;10.00;10.00;;;;;16.74;47.42;100725.97;5039929;28;45480;-59
2022/09/24 06:31:16;;;;;;;;;14.00;12.75;;;;;16.69;47.18;100726.16;5039630;28;45321;-60
2022/09/24 06:33:42;;;;;;;;;16.75;13.25;;;;;16.69;47.59;100728.81;5039910;28;45247;-60
2022/09/24 06:36:08;;;;;;;;;11.75;10.00;;;;;16.70;47.78;100727.91;5039828;28;46047;-60
2022/09/24 06:38:34;;;;;;;;;12.50;10.50;;;;;16.69;47.76;100728.81;5039419;28;45456;-60
2022/09/24 06:41:03;;;;;;;;;11.75;11.25;;;;;16.70;47.44;100734.97;5022265;28;45328;-60
2022/09/24 06:43:30;;;;;;;;;12.25;11.75;;;;;16.70;47.95;100737.63;5039548;28;45442;-60
2022/09/24 06:45:57;;;;;;;;;12.25;8.25;;;;;16.70;47.84;100735.84;5039632;28;45408;-59
2022/09/24 06:48:23;;;;;;;;;15.50;12.25;;;;;16.70;48.08;100737.63;5046103;28;45382;-59
2022/09/24 06:50:48;;;;;;;;;15.75;13.50;;;;;16.68;47.60;100739.50;5039448;28;45463;-60
2022/09/24 06:53:14;;;;;;;;;12.75;11.00;;;;;16.66;48.13;100734.22;5039658;28;45308;-60
2022/09/24 06:55:40;;;;;;;;;13.50;12.25;;;;;16.57;47.76;100724.00;5039563;28;46962;-60
2022/09/24 06:58:09;;;;;;;;;12.50;12.00;;;;;16.54;48.15;100726.75;5040630;28;45322;-60
2022/09/24 07:00:35;;;;;;;;;17.25;14.00;;;;;16.64;47.98;100740.53;5059722;28;45337;-60
2022/09/24 07:03:01;;;;;;;;;21.50;20.25;;;;;16.64;48.08;100740.53;5059337;28;45567;-60
2022/09/24 07:05:27;;;;;;;;;18.00;16.25;;;;;16.65;48.28;100752.88;5041248;28;45823;-60
2022/09/24 07:07:52;;;;;;;;;15.50;14.50;;;;;16.65;48.13;100744.91;5059539;28;45359;-60
2022/09/24 07:10:18;;;;;;;;;24.25;22.00;;;;;16.66;48.03;100752.81;5059818;28;45418;-60
2022/09/24 07:12:43;;;;;;;;;19.75;15.50;;;;;16.67;48.00;100743.06;5059440;28;45442;-60
2022/09/24 07:15:09;;;;;;;;;15.00;15.00;;;;;16.71;48.29;100752.63;5058820;28;45396;-60
2022/09/24 07:17:34;;;;;;;;;17.25;13.50;;;;;16.71;48.07;100749.97;5059440;28;45482;-60
2022/09/24 07:20:00;;;;;;;;;16.00;12.00;;;;;16.72;48.14;100757.03;5059660;28;45380;-60
2022/09/24 07:22:26;;;;;;;;;13.75;11.00;;;;;16.74;48.42;100752.50;5059147;28;45243;-60
2022/09/24 07:24:51;;;;;;;;;13.50;12.25;;;;;16.77;48.44;100756.84;5059503;28;46397;-60
2022/09/24 07:27:20;;;;;;;;;15.00;14.00;;;;;16.75;48.56;100756.88;5059166;28;45292;-60
2022/09/24 07:29:46;;;;;;;;;19.75;16.00;;;;;16.74;48.21;100756.03;5041520;28;45446;-60
2022/09/24 07:32:11;;;;;;;;;17.00;14.50;;;;;16.73;48.46;100756.09;5059095;28;45415;-60
2022/09/24 07:34:36;;;;;;;;;15.00;13.00;;;;;16.74;48.56;100763.09;5059196;28;46123;-60
2022/09/24 07:37:01;;;;;;;;;14.00;13.00;;;;;16.74;48.54;100761.34;5058994;28;45429;-60
2022/09/24 07:39:27;;;;;;;;;15.00;14.50;;;;;16.73;48.53;100753.44;5059448;28;45252;-60
2022/09/24 07:41:53;;;;;;;;;16.00;14.75;;;;;16.77;48.45;100763.00;5059056;28;45450;-60
2022/09/24 07:44:24;;;;;;;;;17.00;14.25;;;;;16.80;48.70;100764.66;5062172;28;45385;-60
2022/09/24 07:46:50;;;;;;;;;18.25;17.75;;;;;16.78;48.38;100762.09;5062500;28;45167;-60
2022/09/24 07:49:16;;;;;;;;;25.75;17.75;;;;;16.83;48.38;100769.84;5053809;28;45469;-60
2022/09/24 07:51:42;;;;;;;;;22.50;17.75;;;;;16.82;48.79;100769.00;5024035;28;45356;-60
2022/09/24 07:54:08;;;;;;;;;18.00;15.75;;;;;16.88;48.79;100775.84;5024425;28;47598;-60
2022/09/24 07:56:34;;;;;;;;;16.50;15.00;;;;;16.89;48.51;100781.09;5042217;28;45266;-60
2022/09/24 07:59:00;;;;;;;;;18.50;14.75;;;;;16.90;48.60;100777.53;5050981;28;45281;-60
2022/09/24 08:01:26;;;;;;;;;14.00;14.00;;;;;16.92;48.75;100782.78;5062316;28;45266;-59
2022/09/24 08:03:51;;;;;;;;;14.25;14.00;;;;;16.94;48.67;100783.56;5062304;28;45289;-59
2022/09/24 08:06:18;;;;;;;;;13.75;13.75;;;;;16.96;48.76;100789.69;5061088;28;45216;-59
2022/09/24 08:08:44;;;;;;;;;14.00;14.00;;;;;16.98;48.53;100785.22;5062413;28;45279;-59
2022/09/24 08:11:12;;;;;;;;;11.50;11.50;;;;;17.02;48.65;100785.94;5061941;28;45178;-59
2022/09/24 08:13:38;;;;;;;;;12.25;11.75;;;;;17.03;48.57;100795.63;5062128;28;46969;-59
2022/09/24 08:16:04;;;;;;;;;15.25;14.50;;;;;17.05;48.52;100789.31;5061982;28;45324;-59
2022/09/24 08:18:31;;;;;;;;;15.25;13.50;;;;;17.07;48.89;100797.25;5061955;28;45336;-59
2022/09/24 08:21:03;;;;;;;;;15.75;12.50;;;;;17.06;48.96;100795.50;5061493;28;45364;-58
2022/09/24 08:23:31;;;;;;;;;14.00;14.00;;;;;17.08;48.86;100790.13;5061695;28;46623;-59
2022/09/24 08:25:56;;;;;;;;;18.75;18.75;;;;;17.09;48.87;100795.38;5061758;28;45312;-59
2022/09/24 08:28:21;;;;;;;;;15.75;14.75;;;;;17.05;49.00;100794.63;5061806;28;46039;-59
2022/09/24 08:30:47;;;;;;;;;15.50;11.25;;;;;17.08;49.13;100793.66;5061763;28;45236;-59
2022/09/24 08:33:14;;;;;;;;;13.00;12.00;;;;;17.07;49.02;100799.91;5043694;28;46101;-59
2022/09/24 08:35:39;;;;;;;;;16.00;13.75;;;;;17.09;49.24;100802.47;5043346;28;45725;-59
2022/09/24 08:38:05;;;;;;;;;25.25;21.25;;;;;17.10;49.24;100806.88;5061805;28;45231;-59
2022/09/24 08:40:37;;;;;;;;;10.00;9.50;;;;;17.08;49.17;100801.63;5061540;28;45166;-59
2022/09/24 08:43:18;;;;;;;;;14.25;14.00;;;;;17.09;49.29;100802.47;5061408;28;46355;-58
2022/09/24 08:48:41;;;;;;;;;12.00;11.25;;;;;17.13;49.21;100804.97;5057080;28;45426;-60
2022/09/24 08:51:13;;;;;;;;;13.00;10.50;;;;;17.16;49.05;100799.50;5041121;28;45528;-60
2022/09/24 08:53:58;;;;;;;;;14.50;14.00;;;;;17.19;49.08;100806.50;5040873;28;45355;-60
2022/09/24 08:56:31;;;;;;;;;16.00;12.50;;;;;17.20;49.02;100811.72;5023341;28;45299;-59
2022/09/24 08:58:56;;;;;;;;;10.25;8.00;;;;;17.21;48.82;100802.84;5049315;28;45346;-60
2022/09/24 09:01:37;;;;;;;;;9.25;8.50;;;;;17.18;49.30;100802.97;5061351;28;45317;-60
2022/09/24 09:04:39;;;;;;;;;11.50;10.75;;;;;17.24;49.18;100808.97;5061334;28;46318;-59
2022/09/24 09:07:16;;;;;;;;;20.50;16.75;;;;;17.24;49.22;100811.63;5061022;28;45363;-60
2022/09/24 09:09:47;;;;;;;;;15.25;14.75;;;;;17.25;49.00;100810.69;5061063;28;45191;-60
2022/09/24 09:12:19;;;;;;;;;11.50;11.50;;;;;17.27;49.33;100814.13;5060970;28;45310;-60
2022/09/24 09:14:54;;;;;;;;;14.25;13.75;;;;;17.28;49.12;100814.09;5060862;28;45271;-60
2022/09/24 09:17:46;;;;;;;;;16.50;13.00;;;;;17.33;49.06;100808.56;5043071;28;45427;-60
2022/09/24 09:20:39;;;;;;;;;11.50;10.25;;;;;17.34;49.27;100812.97;5060905;28;45233;-60
2022/09/24 09:23:32;;;;;;;;;14.25;13.50;;;;;17.36;49.10;100825.25;5059840;28;45266;-60
2022/09/24 09:25:59;;;;;;;;;11.25;11.25;;;;;17.37;49.01;100810.16;5060328;28;46560;-60
2022/09/24 09:28:28;;;;;;;;;13.25;13.25;;;;;17.40;49.37;100817.16;5060689;28;45352;-60
2022/09/24 09:30:57;;;;;;;;;9.50;8.25;;;;;17.42;49.42;100817.94;5060836;28;45277;-60
2022/09/24 09:33:43;;;;;;;;;11.25;11.25;;;;;17.40;49.03;100812.72;5042677;28;45778;-60
2022/09/24 09:36:18;;;;;;;;;14.75;13.75;;;;;17.42;49.32;100810.88;5060482;28;46177;-62
2022/09/24 09:39:18;;;;;;;;;7.50;6.00;;;;;17.43;49.22;100814.38;5060258;28;45334;-60
2022/09/24 09:42:02;;;;;;;;;13.75;13.00;;;;;17.43;49.54;100819.69;5042794;28;45330;-60
2022/09/24 09:44:36;;;;;;;;;14.25;14.00;;;;;17.45;49.50;100820.50;5042522;28;45451;-60
2022/09/24 09:47:40;;;;;;;;;11.75;11.25;;;;;17.47;49.37;100816.84;5042354;28;45259;-60
2022/09/24 09:50:25;;;;;;;;;9.00;7.00;;;;;17.48;49.44;100818.59;5035299;28;45463;-60
2022/09/24 09:52:50;;;;;;;;;11.25;10.75;;;;;17.49;49.29;100814.13;5040361;28;45406;-60
2022/09/24 09:55:30;;;;;;;;;13.75;12.50;;;;;17.49;49.41;100817.63;5022489;28;45479;-59
2022/09/24 09:58:13;;;;;;;;;13.50;13.25;;;;;17.54;49.49;100822.75;5040071;28;45490;-59
2022/09/24 10:00:40;;;;;;;;;12.50;11.25;;;;;17.56;49.38;100818.25;5049327;28;45246;-59
2022/09/24 10:03:19;;;;;;;;;9.50;7.50;;;;;17.59;49.29;100819.91;5060376;28;45174;-59
2022/09/24 10:05:54;;;;;;;;;17.75;12.00;;;;;17.60;49.13;100817.19;5059403;28;45447;-59
2022/09/24 10:08:22;;;;;;;;;13.50;11.25;;;;;17.64;49.14;100823.25;5042583;28;46379;-60
2022/09/24 10:10:55;;;;;;;;;15.75;14.00;;;;;17.66;49.33;100818.69;5060028;28;45269;-60
2022/09/24 10:13:22;;;;;;;;;13.00;12.50;;;;;17.69;49.21;100818.59;5042148;28;45337;-60
2022/09/24 10:15:58;;;;;;;;;13.50;11.00;;;;;17.71;49.34;100811.44;5041498;28;45611;-60
2022/09/24 10:18:30;;;;;;;;;19.25;13.75;;;;;17.74;49.57;100811.28;5039731;28;45709;-60
2022/09/24 10:20:58;;;;;;;;;17.50;14.25;;;;;17.77;49.31;100813.78;5039842;28;45289;-60
2022/09/24 10:23:33;;;;;;;;;15.75;14.75;;;;;17.81;49.44;100822.50;5040171;28;45206;-60
2022/09/24 10:26:00;;;;;;;;;16.50;15.00;;;;;17.84;49.22;100814.41;5039710;28;45631;-60
2022/09/24 10:31:13;;;;;;;;;12.50;12.50;;;;;17.90;49.22;100814.16;5039939;28;45344;-60
2022/09/24 10:33:43;;;;;;;;;19.75;16.50;;;;;17.96;49.30;100813.91;5039772;28;45310;-60
2022/09/24 10:36:34;;;;;;;;;14.75;12.00;;;;;18.00;49.34;100812.84;5039735;28;45218;-60
2022/09/24 10:39:20;;;;;;;;;14.50;14.50;;;;;18.04;49.24;100813.56;5036380;28;45500;-59
2022/09/24 10:41:48;;;;;;;;;15.00;13.00;;;;;18.08;49.10;100823.13;5039105;28;45399;-60
2022/09/24 10:44:15;;;;;;;;;16.50;15.75;;;;;18.12;49.31;100819.41;5039883;28;45269;-60
2022/09/24 10:47:03;;;;;;;;;15.25;13.00;;;;;18.18;49.05;100819.13;5039472;28;45242;-60
2022/09/24 10:49:44;;;;;;;;;18.25;16.75;;;;;18.26;49.21;100818.78;5045336;28;46206;-60
2022/09/24 10:53:10;;;;;;;;;17.25;17.25;;;;;18.26;49.16;100800.16;5020996;28;45353;-60
2022/09/24 10:56:00;;;;;;;;;16.25;14.50;;;;;18.47;49.23;100826.72;4986503;28;45440;-60
2022/09/24 10:58:52;;;;;;;;;16.00;14.25;;;;;18.58;49.78;100815.56;4982888;28;45530;-60
2022/09/24 11:01:37;;;;;;;;;16.75;16.75;;;;;18.71;49.36;100816.72;5040144;28;45533;-60
2022/09/24 11:04:38;;;;;;;;;30.75;27.25;;;;;18.86;49.18;100816.97;5039419;28;45461;-60
2022/09/24 11:07:13;;;;;;;;;18.75;16.75;;;;;18.98;49.42;100819.91;5047666;28;45889;-60
2022/09/24 11:09:57;;;;;;;;;18.75;13.75;;;;;19.12;49.10;100818.41;5041360;28;45434;-60
2022/09/24 11:12:34;;;;;;;;;18.50;17.50;;;;;19.23;49.29;100812.53;5059199;28;45392;-60
2022/09/24 11:15:24;;;;;;;;;16.50;15.50;;;;;19.33;49.03;100821.78;5041262;28;45378;-60
2022/09/24 11:18:24;;;;;;;;;18.00;17.25;;;;;19.44;49.12;100814.13;5061185;28;45402;-60
2022/09/24 11:21:13;;;;;;;;;19.00;16.00;;;;;19.53;48.72;100817.25;5062579;28;45471;-60
2022/09/24 11:24:00;;;;;;;;;18.00;17.25;;;;;19.62;48.74;100820.34;5044495;28;45928;-60
2022/09/24 11:26:44;;;;;;;;;21.50;19.75;;;;;19.67;48.33;100824.56;5062784;28;45313;-60
2022/09/24 11:29:31;;;;;;;;;21.00;18.50;;;;;19.72;48.44;100819.84;5062550;28;45305;-60
2022/09/24 11:32:09;;;;;;;;;19.25;16.75;;;;;19.72;48.23;100818.06;5062516;28;45328;-60